Time;durP1;ratioP1;P1;durP2;ratioP2;P2;SDS_P1;SDS_P2;PMS_P1;PMS_P2;Temp;Humidity;BMP_temperature;BMP_pressure;BME280_temperature;BME280_humidity;BME280_pressure;Samples;Min_cycle;Max_cycle;Signal;HPM_P1;HPM_P2
2023/01/26 00:02:22;;;;;;;8.02;3.25;;;;;;;5.29;91.94;98565.06;5075153;28;20040;-91
2023/01/26 00:04:48;;;;;;;6.80;3.53;;;;;;;5.22;92.18;98568.63;5072104;28;20051;-91
2023/01/26 00:07:14;;;;;;;5.78;3.15;;;;;;;5.12;91.60;98548.53;5073993;28;20101;-92
2023/01/26 00:09:40;;;;;;;6.68;3.60;;;;;;;5.19;91.40;98568.66;5071777;28;20044;-90
2023/01/26 00:12:08;;;;;;;6.80;3.50;;;;;;;4.95;91.86;98538.13;5071995;28;20037;-93
2023/01/26 00:14:48;;;;;;;8.75;3.75;;;;;;;5.06;91.95;98570.53;5073221;28;20059;-90
2023/01/26 00:17:24;;;;;;;6.68;3.25;;;;;;;5.01;91.55;98567.06;5069872;28;20060;-92
2023/01/26 00:19:54;;;;;;;6.20;3.10;;;;;;;4.96;91.69;98566.22;5070484;28;20045;-89
2023/01/26 00:22:21;;;;;;;7.13;3.40;;;;;;;5.03;91.40;98573.19;5070802;28;20049;-92
2023/01/26 00:24:47;;;;;;;7.05;3.30;;;;;;;4.96;91.05;98553.03;5073683;28;20072;-92
2023/01/26 00:27:14;;;;;;;5.63;3.20;;;;;;;4.97;90.78;98554.78;5073984;28;20114;-92
2023/01/26 00:29:40;;;;;;;7.90;3.97;;;;;;;5.01;90.33;98558.25;5072878;28;20072;-94
2023/01/26 00:32:06;;;;;;;8.02;3.75;;;;;;;4.92;89.78;98530.22;5061829;28;20079;-91
2023/01/26 00:34:32;;;;;;;7.13;4.00;;;;;;;4.91;89.76;98536.41;5060333;28;20040;-92
2023/01/26 00:36:58;;;;;;;6.25;3.40;;;;;;;4.89;89.77;98533.75;5060930;28;20051;-92
2023/01/26 00:39:24;;;;;;;8.13;3.67;;;;;;;4.77;89.18;98530.34;5061670;28;20413;-90
2023/01/26 00:44:51;;;;;;;7.32;4.53;;;;;;;4.80;88.27;98535.63;5090881;27;20368;-91
2023/01/26 00:47:18;;;;;;;9.35;5.28;;;;;;;4.72;87.61;98514.59;5073192;28;20045;-92
2023/01/26 00:49:44;;;;;;;7.70;4.22;;;;;;;4.64;87.69;98512.03;5073748;28;20048;-89
2023/01/26 00:52:11;;;;;;;7.60;4.40;;;;;;;4.60;86.48;98504.13;5074331;28;20132;-93
2023/01/26 00:54:37;;;;;;;10.02;4.57;;;;;;;4.77;86.75;98539.16;5074093;28;20021;-91
2023/01/26 00:57:03;;;;;;;8.70;4.40;;;;;;;4.56;86.17;98497.16;5074293;28;20051;-91
2023/01/26 00:59:31;;;;;;;9.93;4.38;;;;;;;4.50;86.18;98493.66;5071501;28;20407;-92
2023/01/26 01:02:01;;;;;;;10.52;4.53;;;;;;;4.51;85.57;98490.16;5069705;28;20498;-90
2023/01/26 01:04:28;;;;;;;9.15;4.50;;;;;;;4.51;85.56;98499.81;5071658;28;20037;-90
2023/01/26 01:07:04;;;;;;;7.00;4.45;;;;;;;4.69;85.21;98525.16;5072529;28;20052;-91
2023/01/26 01:09:31;;;;;;;9.32;4.60;;;;;;;4.49;84.65;98486.69;5071135;28;20120;-92
2023/01/26 01:11:57;;;;;;;9.27;4.57;;;;;;;4.64;83.43;98501.50;5072317;28;20072;-91
2023/01/26 01:14:23;;;;;;;9.48;4.15;;;;;;;4.60;82.98;98478.69;5088554;28;20036;-93
2023/01/26 01:16:49;;;;;;;10.90;4.40;;;;;;;4.61;83.14;98475.16;5073884;28;20132;-93
2023/01/26 01:19:17;;;;;;;8.55;4.32;;;;;;;4.51;83.35;98462.94;5074495;28;20064;-91
2023/01/26 01:21:43;;;;;;;8.93;4.20;;;;;;;4.61;82.93;98483.06;5071965;28;20074;-93
2023/01/26 01:24:10;;;;;;;9.65;3.70;;;;;;;4.60;82.58;98483.97;5072514;28;20043;-91
2023/01/26 01:26:37;;;;;;;8.20;4.10;;;;;;;4.63;82.07;98469.88;5074318;28;20037;-92
2023/01/26 01:29:03;;;;;;;7.10;3.30;;;;;;;4.62;81.72;98476.94;5075816;28;20032;-92
2023/01/26 01:31:29;;;;;;;13.98;5.25;;;;;;;4.57;81.76;98462.91;5074932;28;20044;-91
2023/01/26 01:33:55;;;;;;;8.88;4.40;;;;;;;4.71;81.99;98497.91;5075318;28;20029;-93
2023/01/26 01:36:23;;;;;;;9.27;4.82;;;;;;;4.64;81.87;98485.69;5074809;28;20140;-90
2023/01/26 01:38:49;;;;;;;10.43;4.40;;;;;;;4.69;82.31;98489.16;5074017;28;20056;-91
2023/01/26 01:41:18;;;;;;;11.90;5.30;;;;;;;4.43;82.25;98454.25;5071726;28;20140;-91
2023/01/26 01:43:44;;;;;;;7.20;4.30;;;;;;;4.54;82.24;98468.22;5073181;28;20052;-91
2023/01/26 01:46:18;;;;;;;9.20;4.35;;;;;;;4.48;82.73;98465.63;5072636;28;20045;-91
2023/01/26 01:48:51;;;;;;;10.25;4.70;;;;;;;4.57;81.52;98462.91;5074502;28;20036;-93
2023/01/26 01:51:20;;;;;;;7.65;3.90;;;;;;;4.55;82.79;98484.88;5074586;28;20465;-90
2023/01/26 01:53:50;;;;;;;12.90;5.43;;;;;;;4.33;83.17;98458.69;5090085;28;20036;-92
2023/01/26 01:56:20;;;;;;;8.38;5.15;;;;;;;4.38;82.87;98464.81;5060090;28;20040;-91
2023/01/26 01:58:50;;;;;;;11.55;4.95;;;;;;;4.48;83.24;98487.53;5057303;28;20044;-92
2023/01/26 02:01:16;;;;;;;11.85;5.65;;;;;;;4.32;83.50;98463.09;5057798;28;20159;-92
2023/01/26 02:03:43;;;;;;;8.93;4.95;;;;;;;4.25;84.41;98458.78;5060437;28;20076;-92
2023/01/26 02:06:13;;;;;;;12.95;6.53;;;;;;;4.27;83.97;98464.91;5059276;28;20071;-91
2023/01/26 02:08:43;;;;;;;18.20;6.00;;;;;;;4.25;84.33;98471.94;5058865;28;20045;-91
2023/01/26 02:11:15;;;;;;;9.43;4.90;;;;;;;4.16;85.15;98456.16;5057721;28;20040;-91
2023/01/26 02:13:42;;;;;;;10.82;5.90;;;;;;;4.21;85.49;98480.72;5059803;28;20045;-92
2023/01/26 02:16:08;;;;;;;12.85;5.70;;;;;;;4.05;85.65;98450.09;5058797;28;20045;-90
2023/01/26 02:18:34;;;;;;;12.90;6.47;;;;;;;4.00;84.97;98436.13;5059639;28;20129;-92
2023/01/26 02:21:02;;;;;;;10.30;4.82;;;;;;;4.10;85.01;98441.31;5055983;28;20045;-92
2023/01/26 02:23:44;;;;;;;10.65;4.75;;;;;;;4.20;84.72;98451.78;5058718;28;20053;-92
2023/01/26 02:26:14;;;;;;;11.02;5.00;;;;;;;4.21;84.61;98445.63;5060848;28;20051;-92
2023/01/26 02:28:41;;;;;;;10.93;5.20;;;;;;;4.09;85.10;98441.31;5060984;28;20402;-90
2023/01/26 02:31:08;;;;;;;10.05;4.78;;;;;;;4.03;85.00;98421.16;5055018;28;20072;-91
2023/01/26 02:33:35;;;;;;;9.85;5.13;;;;;;;3.91;85.76;98416.88;5056867;28;20494;-92
2023/01/26 02:36:02;;;;;;;11.07;5.60;;;;;;;4.00;85.05;98413.31;5056131;28;20061;-91
2023/01/26 02:38:32;;;;;;;10.68;5.53;;;;;;;4.09;85.29;98438.69;5054861;28;21020;-91
2023/01/26 02:41:03;;;;;;;10.80;5.47;;;;;;;3.95;85.32;98416.84;5057874;28;20064;-92
2023/01/26 02:43:31;;;;;;;9.85;4.90;;;;;;;4.08;85.22;98429.94;5073234;28;20499;-90
2023/01/26 02:45:57;;;;;;;12.07;4.82;;;;;;;3.99;85.68;98418.56;5057562;28;20498;-91
2023/01/26 02:51:22;;;;;;;10.95;4.95;;;;;;;4.04;85.08;98404.50;5111447;27;1374002;-90
2023/01/26 02:53:47;;;;;;;11.13;5.25;;;;;;;4.05;84.59;98395.72;5135327;28;20071;-91
2023/01/26 02:56:13;;;;;;;11.43;5.45;;;;;;;3.97;84.86;98386.13;5134214;28;20074;-92
2023/01/26 02:58:39;;;;;;;9.13;4.30;;;;;;;3.98;84.81;98383.50;5136897;28;20042;-93
2023/01/26 03:01:05;;;;;;;10.82;5.13;;;;;;;3.98;84.13;98372.97;5134205;28;20111;-93
2023/01/26 03:06:38;;;;;;;8.25;4.75;;;;;;;4.08;84.25;98377.31;5135048;27;20403;-92
2023/01/26 03:09:04;;;;;;;8.15;4.75;;;;;;;4.03;84.42;98378.19;5128850;28;20065;-91
2023/01/26 03:11:40;;;;;;;9.60;6.13;;;;;;;4.09;84.40;98389.56;5122014;28;20044;-90
2023/01/26 03:14:06;;;;;;;9.10;4.65;;;;;;;4.12;84.26;98391.31;5127899;28;20031;-91
2023/01/26 03:16:32;;;;;;;13.73;5.85;;;;;;;3.87;84.36;98354.63;5122311;28;20159;-93
2023/01/26 03:27:46;;;;;;;11.65;4.70;;;;;;;3.91;84.95;98380.03;5108934;27;20379;-91
2023/01/26 03:30:14;;;;;;;10.88;5.15;;;;;;;3.83;84.73;98355.53;5073245;28;20044;-91
2023/01/26 03:32:40;;;;;;;13.40;5.15;;;;;;;3.86;84.99;98359.91;5076914;28;20439;-92
2023/01/26 03:35:08;;;;;;;12.70;5.72;;;;;;;3.76;85.52;98356.47;5074293;28;20044;-92
2023/01/26 03:37:35;;;;;;;11.70;6.22;;;;;;;3.69;85.70;98349.53;5071528;28;20037;-92
2023/01/26 03:58:11;;;;;;;9.35;4.60;;;;;;;3.62;86.32;98325.03;5137768;27;20375;-92
2023/01/26 04:00:37;;;;;;;9.80;5.20;;;;;;;3.61;86.61;98320.63;5134150;28;20039;-93
2023/01/26 04:08:59;;;;;;;14.15;5.65;;;;;;;3.68;86.89;98317.06;5134791;27;20322;-92
2023/01/26 04:11:25;;;;;;;10.57;5.65;;;;;;;3.66;86.25;98299.56;5134888;28;20054;-92
2023/01/26 04:22:51;;;;;;;11.90;5.35;;;;;;;3.41;88.04;98264.69;5142181;27;1369204;-93
2023/01/26 04:25:19;;;;;;;11.60;6.30;;;;;;;3.36;88.38;98269.09;5154391;27;20095;-92
2023/01/26 04:27:45;;;;;;;10.57;4.95;;;;;;;3.42;88.78;98275.19;5151808;27;20057;-93
2023/01/26 04:30:13;;;;;;;12.60;6.03;;;;;;;3.33;88.98;98259.47;5146982;27;20035;-92
2023/01/26 04:32:39;;;;;;;12.32;5.75;;;;;;;3.31;89.53;98250.72;5164961;27;20065;-90
2023/01/26 04:35:06;;;;;;;11.05;5.70;;;;;;;3.27;90.04;98247.28;5150972;27;20046;-92
2023/01/26 04:37:32;;;;;;;13.68;5.82;;;;;;;3.21;90.42;98234.16;5148643;27;20395;-91
2023/01/26 04:40:00;;;;;;;11.05;5.70;;;;;;;3.34;90.69;98252.47;5147727;27;20129;-92
2023/01/26 04:42:26;;;;;;;11.32;5.50;;;;;;;3.41;90.25;98243.66;5151146;27;20030;-94
2023/01/26 04:44:52;;;;;;;10.77;5.65;;;;;;;3.50;90.08;98254.97;5152735;27;20045;-91
2023/01/26 04:47:18;;;;;;;10.65;5.53;;;;;;;3.46;90.36;98252.38;5150600;27;20058;-93
2023/01/26 04:49:44;;;;;;;14.07;5.47;;;;;;;3.32;90.54;98231.47;5147650;27;20122;-92
2023/01/26 04:52:10;;;;;;;9.77;5.07;;;;;;;3.47;91.24;98257.63;5152225;27;20438;-92
2023/01/26 04:54:36;;;;;;;11.43;5.55;;;;;;;3.37;90.94;98232.28;5153564;27;20395;-92
2023/01/26 04:57:03;;;;;;;11.65;5.50;;;;;;;3.32;91.56;98244.59;5148990;27;20073;-91
2023/01/26 04:59:29;;;;;;;11.93;5.68;;;;;;;3.44;91.30;98257.66;5166631;27;20053;-93
2023/01/26 05:01:55;;;;;;;9.30;5.13;;;;;;;3.31;91.32;98226.22;5151123;27;20103;-92
2023/01/26 05:04:21;;;;;;;13.45;5.60;;;;;;;3.41;91.79;98241.91;5151318;27;20046;-93
2023/01/26 05:06:47;;;;;;;8.70;4.75;;;;;;;3.40;91.59;98257.69;5151296;27;20395;-91
2023/01/26 05:09:13;;;;;;;10.40;5.22;;;;;;;3.34;91.63;98237.59;5149591;27;20050;-91
2023/01/26 05:11:39;;;;;;;9.65;5.10;;;;;;;3.34;91.87;98239.31;5150221;27;20042;-93
2023/01/26 05:14:06;;;;;;;11.45;5.63;;;;;;;3.44;92.04;98262.91;5153898;27;20474;-91
2023/01/26 05:16:32;;;;;;;12.32;5.65;;;;;;;3.36;91.68;98233.19;5145822;27;20037;-91
2023/01/26 05:18:58;;;;;;;9.48;5.05;;;;;;;3.45;91.73;98235.75;5152048;27;20035;-92
2023/01/26 05:21:26;;;;;;;8.50;4.88;;;;;;;3.58;91.86;98252.31;5145339;27;20131;-91
2023/01/26 05:23:52;;;;;;;12.00;5.93;;;;;;;3.50;91.70;98236.56;5150380;27;20037;-92
2023/01/26 05:26:18;;;;;;;7.63;4.70;;;;;;;3.53;92.21;98242.69;5142830;27;20047;-91
2023/01/26 05:28:44;;;;;;;10.63;5.47;;;;;;;3.44;91.99;98227.88;5144524;27;20039;-92
2023/01/26 05:31:11;;;;;;;12.10;5.28;;;;;;;3.55;92.12;98252.31;5146908;27;20443;-93
2023/01/26 05:33:37;;;;;;;11.15;4.85;;;;;;;3.46;92.53;98241.88;5138986;27;20503;-93
2023/01/26 05:36:05;;;;;;;9.77;5.13;;;;;;;3.42;92.52;98222.59;5128829;27;20047;-93
2023/01/26 05:38:31;;;;;;;7.72;4.32;;;;;;;3.44;92.37;98226.09;5137467;27;20067;-92
2023/01/26 05:40:58;;;;;;;9.00;5.03;;;;;;;3.47;92.12;98223.47;5127906;27;20047;-90
2023/01/26 05:43:24;;;;;;;8.98;5.20;;;;;;;3.60;92.01;98239.13;5132561;27;20051;-93
2023/01/26 05:45:50;;;;;;;8.07;5.15;;;;;;;3.71;91.63;98255.72;5131358;27;20035;-92
2023/01/26 05:48:17;;;;;;;9.70;4.63;;;;;;;3.69;91.88;98249.59;5130472;27;20044;-92
2023/01/26 05:50:43;;;;;;;9.27;4.40;;;;;;;3.69;91.83;98249.59;5135233;27;20043;-93
2023/01/26 05:53:09;;;;;;;9.50;4.65;;;;;;;3.74;91.41;98246.94;5133531;27;20037;-92
2023/01/26 05:55:35;;;;;;;9.75;5.65;;;;;;;3.68;91.69;98239.94;5132041;27;20047;-90
2023/01/26 05:58:00;;;;;;;8.43;4.45;;;;;;;3.62;91.75;98229.47;5132230;27;20065;-90
2023/01/26 06:00:26;;;;;;;8.90;5.22;;;;;;;3.69;91.69;98246.97;5128612;27;20043;-93
2023/01/26 06:02:52;;;;;;;8.65;4.10;;;;;;;3.81;91.42;98260.00;5134434;27;20258;-93
2023/01/26 06:05:20;;;;;;;8.93;4.43;;;;;;;3.61;92.08;98239.13;5134393;27;20035;-92
2023/01/26 06:07:45;;;;;;;9.90;4.80;;;;;;;3.59;92.08;98240.88;5131905;27;20035;-92
2023/01/26 06:10:11;;;;;;;9.05;3.90;;;;;;;3.50;92.29;98226.06;5130455;27;20062;-92
2023/01/26 06:12:38;;;;;;;9.35;5.00;;;;;;;3.65;92.34;98255.75;5130485;27;20508;-94
2023/01/26 06:15:05;;;;;;;8.35;5.10;;;;;;;3.48;92.63;98224.34;5131565;27;20091;-95
2023/01/26 06:17:31;;;;;;;10.00;4.97;;;;;;;3.56;92.79;98246.19;5127015;27;20040;-92
2023/01/26 06:19:57;;;;;;;7.88;4.22;;;;;;;3.61;92.80;98260.16;5132614;27;20039;-94
2023/01/26 06:22:24;;;;;;;7.90;4.45;;;;;;;3.58;92.89;98259.28;5133114;27;20568;-93
2023/01/26 06:24:50;;;;;;;9.85;5.25;;;;;;;3.68;92.70;98264.47;5136851;27;20035;-94
2023/01/26 06:27:17;;;;;;;9.27;4.70;;;;;;;3.63;92.56;98252.28;5130979;27;20066;-92
2023/01/26 06:29:44;;;;;;;9.38;4.78;;;;;;;3.45;92.57;98227.88;5131487;27;20039;-94
2023/01/26 06:32:10;;;;;;;9.05;4.82;;;;;;;3.64;92.93;98256.63;5132859;27;20035;-91
2023/01/26 06:34:36;;;;;;;9.20;4.45;;;;;;;3.56;92.42;98243.56;5135613;27;20047;-92
2023/01/26 06:37:02;;;;;;;9.10;4.97;;;;;;;3.57;92.95;98231.28;5130501;27;20106;-91
2023/01/26 06:39:29;;;;;;;8.75;4.50;;;;;;;3.69;92.52;98255.72;5131326;27;20039;-92
2023/01/26 06:41:55;;;;;;;8.38;4.85;;;;;;;3.69;92.37;98249.59;5136386;27;20039;-94
2023/01/26 06:44:21;;;;;;;8.75;4.60;;;;;;;3.79;92.33;98258.28;5128278;27;20042;-92
2023/01/26 06:46:47;;;;;;;7.30;3.55;;;;;;;3.79;92.44;98259.13;5129080;27;20039;-93
2023/01/26 06:49:15;;;;;;;8.95;4.28;;;;;;;3.62;91.99;98225.13;5123889;27;20040;-92
2023/01/26 06:51:51;;;;;;;9.77;5.05;;;;;;;3.66;91.90;98233.81;5130646;27;20079;-92
2023/01/26 06:54:17;;;;;;;8.18;4.00;;;;;;;3.61;92.00;98220.72;5122874;27;20527;-93
2023/01/26 06:56:44;;;;;;;9.25;4.40;;;;;;;3.66;92.19;98246.97;5132986;27;20034;-92
2023/01/26 06:59:10;;;;;;;8.80;4.30;;;;;;;3.68;92.33;98250.47;5128190;27;20081;-92
2023/01/26 07:01:40;;;;;;;10.57;4.97;;;;;;;3.53;92.95;98240.06;5129874;27;20047;-93
2023/01/26 07:04:06;;;;;;;7.28;4.05;;;;;;;3.55;92.97;98244.41;5131869;27;21625;-95
2023/01/26 07:06:32;;;;;;;8.80;4.40;;;;;;;3.43;93.04;98229.63;5131002;27;20037;-93
2023/01/26 07:08:58;;;;;;;8.52;4.55;;;;;;;3.68;92.64;98263.59;5135305;27;20043;-93
2023/01/26 07:11:24;;;;;;;8.57;3.80;;;;;;;3.68;92.01;98253.09;5130318;27;20031;-91
2023/01/26 07:13:51;;;;;;;7.57;4.47;;;;;;;3.75;92.13;98267.94;5126679;27;20118;-94
2023/01/26 07:16:18;;;;;;;7.82;3.95;;;;;;;3.76;91.23;98238.13;5132055;27;20112;-93
2023/01/26 07:18:44;;;;;;;7.30;4.10;;;;;;;3.72;91.09;98225.88;5127008;27;20039;-93
2023/01/26 07:21:11;;;;;;;9.70;4.30;;;;;;;3.95;91.12;98259.91;5132408;27;20057;-93
2023/01/26 07:23:37;;;;;;;7.65;4.13;;;;;;;3.80;90.81;98228.47;5129645;27;20069;-93
2023/01/26 07:26:04;;;;;;;7.85;4.20;;;;;;;3.95;90.58;98243.22;5129650;27;20102;-94
2023/01/26 07:28:30;;;;;;;8.43;4.70;;;;;;;3.77;90.47;98224.09;5136848;27;20039;-93
2023/01/26 07:30:58;;;;;;;8.52;4.53;;;;;;;3.83;91.04;98231.94;5125530;27;20568;-93
2023/01/26 07:33:24;;;;;;;8.52;4.32;;;;;;;3.88;90.68;98226.63;5132138;27;20048;-93
2023/01/26 07:35:52;;;;;;;10.15;5.45;;;;;;;3.90;90.12;98215.22;5130145;27;20043;-95
2023/01/26 07:38:18;;;;;;;9.18;5.45;;;;;;;3.94;89.68;98216.03;5131154;27;20445;-93
2023/01/26 07:40:44;;;;;;;7.55;4.22;;;;;;;3.93;89.89;98218.72;5129670;27;20103;-92
2023/01/26 07:43:11;;;;;;;9.30;5.22;;;;;;;4.03;90.16;98229.09;5127698;27;20039;-93
2023/01/26 07:45:37;;;;;;;10.77;5.47;;;;;;;4.08;90.66;98242.25;5131879;27;20050;-90
2023/01/26 07:48:05;;;;;;;8.98;5.03;;;;;;;4.09;90.29;98243.97;5132606;27;20035;-92
2023/01/26 07:50:31;;;;;;;10.85;5.28;;;;;;;4.14;90.38;98242.16;5127479;27;20050;-93
2023/01/26 07:52:59;;;;;;;12.48;5.53;;;;;;;4.26;89.76;98244.69;5120528;27;20042;-92
2023/01/26 07:55:25;;;;;;;8.07;4.88;;;;;;;4.24;89.82;98242.94;5129410;27;20060;-94
2023/01/26 07:57:51;;;;;;;8.50;5.20;;;;;;;4.23;88.98;98231.56;5121186;27;20381;-93
2023/01/26 08:00:18;;;;;;;11.02;5.85;;;;;;;4.35;89.05;98232.31;5126792;27;20072;-93
2023/01/26 08:02:48;;;;;;;9.68;5.50;;;;;;;4.53;88.87;98240.00;5128481;27;20035;-92
2023/01/26 08:05:15;;;;;;;10.55;4.80;;;;;;;4.61;87.96;98238.16;5120659;27;20043;-93
2023/01/26 08:07:41;;;;;;;9.10;4.57;;;;;;;4.77;86.59;98208.97;5119475;27;20430;-91
2023/01/26 08:10:09;;;;;;;9.13;4.55;;;;;;;4.93;86.08;98229.84;5128584;27;20104;-93
2023/01/26 08:12:35;;;;;;;7.38;4.47;;;;;;;5.17;84.68;98226.91;5120191;28;20047;-95
2023/01/26 08:15:01;;;;;;;7.47;4.45;;;;;;;5.26;83.71;98221.50;5118861;27;20122;-90
2023/01/26 08:17:27;;;;;;;6.90;3.63;;;;;;;5.40;83.88;98226.56;5131402;27;20127;-93
2023/01/26 08:19:53;;;;;;;8.07;3.72;;;;;;;5.53;83.21;98207.91;5132105;28;20047;-95
2023/01/26 08:22:21;;;;;;;6.85;3.63;;;;;;;5.88;81.67;98208.22;5126932;28;20547;-94
2023/01/26 08:24:47;;;;;;;7.85;4.10;;;;;;;5.95;81.18;98217.78;5119796;28;20520;-95
2023/01/26 08:27:14;;;;;;;5.50;3.30;;;;;;;5.92;80.86;98208.13;5119821;28;20442;-93
2023/01/26 08:29:40;;;;;;;5.90;3.40;;;;;;;5.97;79.44;98205.44;5128175;28;20130;-93
2023/01/26 08:32:07;;;;;;;7.22;3.70;;;;;;;6.04;79.26;98224.69;5122079;28;20054;-92
2023/01/26 08:34:34;;;;;;;5.55;3.20;;;;;;;5.73;81.55;98206.72;5120751;27;20035;-94
2023/01/26 08:37:00;;;;;;;6.68;3.55;;;;;;;6.02;79.74;98218.56;5121578;28;20131;-94
2023/01/26 08:39:28;;;;;;;5.63;3.47;;;;;;;5.89;80.22;98223.13;5130587;28;20492;-92
2023/01/26 08:41:54;;;;;;;7.05;2.88;;;;;;;6.09;79.65;98225.47;5120229;28;20035;-92
2023/01/26 08:44:20;;;;;;;6.88;3.22;;;;;;;6.23;79.45;98215.53;5120832;28;20047;-93
2023/01/26 08:46:46;;;;;;;4.93;3.10;;;;;;;6.30;78.97;98221.56;5119394;28;20058;-93
2023/01/26 08:49:12;;;;;;;7.03;3.00;;;;;;;6.67;78.18;98208.50;5118579;27;20484;-91
2023/01/26 08:51:38;;;;;;;6.45;3.45;;;;;;;6.75;76.67;98208.34;5128516;28;20765;-94
2023/01/26 08:54:06;;;;;;;7.13;3.60;;;;;;;6.93;76.61;98226.47;5123251;28;20039;-92
2023/01/26 08:56:34;;;;;;;10.18;3.65;;;;;;;7.24;76.44;98235.50;5119536;28;20330;-93
2023/01/26 08:59:00;;;;;;;5.60;3.40;;;;;;;7.26;74.52;98225.75;5125749;28;20399;-92
2023/01/26 09:01:26;;;;;;;6.63;3.72;;;;;;;7.62;74.35;98229.34;5133589;28;20044;-92
2023/01/26 09:03:54;;;;;;;4.95;2.90;;;;;;;7.31;73.17;98214.19;5129331;28;20533;-90
2023/01/26 09:06:20;;;;;;;5.28;3.00;;;;;;;7.31;75.60;98229.19;5119422;28;20399;-93
2023/01/26 09:08:46;;;;;;;6.18;3.45;;;;;;;7.31;75.57;98237.13;5124735;27;20050;-96
2023/01/26 09:11:12;;;;;;;4.70;3.20;;;;;;;7.33;74.96;98215.03;5138687;27;20460;-92
2023/01/26 09:13:39;;;;;;;6.13;3.20;;;;;;;7.40;74.32;98227.19;5130800;27;20052;-92
2023/01/26 09:16:08;;;;;;;5.28;2.92;;;;;;;7.72;72.52;98219.38;5130460;27;20039;-93
2023/01/26 09:18:34;;;;;;;6.03;3.08;;;;;;;7.78;70.79;98219.22;5130060;27;20039;-94
2023/01/26 09:21:04;;;;;;;5.47;2.90;;;;;;;7.59;70.99;98221.47;5143241;27;20063;-92
2023/01/26 09:23:36;;;;;;;5.32;3.22;;;;;;;7.46;70.65;98231.47;5136734;27;20039;-95
2023/01/26 09:26:04;;;;;;;6.30;3.38;;;;;;;6.98;72.48;98221.97;5155876;27;20042;-92
2023/01/26 09:28:30;;;;;;;6.30;3.70;;;;;;;7.51;72.39;98229.59;5128879;27;20039;-94
2023/01/26 09:31:02;;;;;;;6.07;3.35;;;;;;;7.68;71.61;98215.97;5142305;27;20514;-94
2023/01/26 09:33:28;;;;;;;5.45;3.25;;;;;;;7.70;69.75;98213.25;5139552;27;20404;-95
2023/01/26 09:35:54;;;;;;;7.50;3.50;;;;;;;7.94;70.93;98225.03;5138011;27;20072;-94
2023/01/26 09:38:20;;;;;;;7.25;3.72;;;;;;;8.06;69.72;98218.53;5137581;27;20047;-95
2023/01/26 09:40:55;;;;;;;8.52;3.65;;;;;;;8.16;68.62;98223.56;5138926;27;20043;-94
2023/01/26 09:43:30;;;;;;;6.50;3.63;;;;;;;8.46;68.29;98241.34;5125410;27;20063;-93
2023/01/26 09:46:11;;;;;;;8.48;3.80;;;;;;;8.27;68.10;98215.34;5127462;27;20055;-93
2023/01/26 09:48:43;;;;;;;6.70;3.88;;;;;;;8.30;68.29;98225.84;5126225;27;20091;-93
2023/01/26 09:51:13;;;;;;;9.13;4.20;;;;;;;8.30;68.70;98215.25;5127093;27;20046;-94
2023/01/26 09:53:46;;;;;;;8.57;4.68;;;;;;;8.42;68.13;98244.09;5127581;27;20039;-93
2023/01/26 09:56:16;;;;;;;7.03;4.00;;;;;;;8.33;68.13;98224.91;5146098;27;20399;-94
2023/01/26 09:58:45;;;;;;;8.68;4.40;;;;;;;8.46;68.62;98222.81;5145981;27;20091;-94
2023/01/26 10:01:19;;;;;;;8.10;4.60;;;;;;;8.24;67.84;98215.44;5144688;27;20042;-94
2023/01/26 10:03:49;;;;;;;7.82;4.35;;;;;;;8.35;68.47;98234.56;5137090;27;20047;-95
2023/01/26 10:06:22;;;;;;;8.77;4.43;;;;;;;8.41;67.46;98209.69;5142311;27;20106;-94
2023/01/26 10:08:48;;;;;;;7.88;4.90;;;;;;;8.48;66.87;98198.03;5126868;27;20047;-95
2023/01/26 10:11:20;;;;;;;9.07;4.47;;;;;;;8.57;67.58;98220.75;5128842;27;20050;-93
2023/01/26 10:13:53;;;;;;;9.32;4.40;;;;;;;8.17;66.89;98219.13;5139854;27;20096;-94
2023/01/26 10:16:23;;;;;;;13.05;5.07;;;;;;;8.02;67.97;98202.75;5142084;27;20023;-94
2023/01/26 10:21:34;;;;;;;10.50;4.88;;;;;;;8.22;67.67;98206.66;5116314;22;20512;-93
2023/01/26 10:24:21;;;;;;;10.18;5.00;;;;;;;8.18;67.56;98194.41;5305723;23;20086;-91
2023/01/26 10:26:50;;;;;;;9.10;4.60;;;;;;;8.38;67.50;98220.34;4986703;28;20034;-95
2023/01/26 10:29:16;;;;;;;10.10;5.13;;;;;;;8.00;67.42;98215.16;4986852;28;20500;-93
2023/01/26 10:31:44;;;;;;;10.27;5.50;;;;;;;7.93;68.71;98191.50;4988483;28;20041;-94
2023/01/26 10:34:14;;;;;;;10.48;4.82;;;;;;;8.04;68.19;98200.03;4986984;28;20039;-95
2023/01/26 10:36:42;;;;;;;8.85;4.47;;;;;;;8.10;67.00;98185.78;4987769;28;20038;-92
2023/01/26 10:39:09;;;;;;;11.80;5.35;;;;;;;8.07;68.11;98188.50;5001009;28;20048;-94
2023/01/26 10:41:36;;;;;;;10.88;5.43;;;;;;;7.96;68.24;98184.38;5005238;28;20038;-94
2023/01/26 10:44:20;;;;;;;11.27;5.80;;;;;;;7.87;68.08;98179.31;4994831;28;20164;-95
2023/01/26 10:47:02;;;;;;;12.95;5.43;;;;;;;7.66;70.19;98185.16;4990994;28;20069;-95
2023/01/26 10:49:28;;;;;;;9.00;4.93;;;;;;;8.05;69.48;98182.41;4985215;28;20571;-94
2023/01/26 10:52:05;;;;;;;11.18;6.32;;;;;;;8.07;68.77;98193.78;4991572;28;20083;-95
2023/01/26 10:54:34;;;;;;;8.75;4.88;;;;;;;7.71;67.44;98148.84;5001896;28;20046;-93
2023/01/26 10:57:03;;;;;;;16.57;6.43;;;;;;;7.58;69.41;98156.22;5000956;28;20054;-95
2023/01/26 10:59:32;;;;;;;9.93;5.35;;;;;;;6.96;69.38;98151.50;4993697;28;20128;-94
2023/01/26 11:02:02;;;;;;;11.85;6.78;;;;;;;6.88;69.97;98142.91;4997618;28;20039;-93
2023/01/26 11:04:29;;;;;;;11.27;6.07;;;;;;;7.06;70.83;98157.47;5000212;28;20038;-93
2023/01/26 11:06:55;;;;;;;12.93;5.78;;;;;;;7.06;70.43;98137.19;5004313;28;20046;-95
2023/01/26 11:09:29;;;;;;;11.90;5.82;;;;;;;7.11;69.75;98129.13;4992071;28;20426;-92
2023/01/26 11:11:59;;;;;;;8.10;5.35;;;;;;;6.93;70.25;98109.28;4994122;28;20099;-93
2023/01/26 11:14:27;;;;;;;10.88;5.07;;;;;;;6.99;70.63;98098.59;4998041;28;20046;-92
2023/01/26 11:16:58;;;;;;;11.00;5.53;;;;;;;7.09;70.44;98094.81;4991683;28;20050;-94
2023/01/26 11:19:44;;;;;;;10.82;4.85;;;;;;;7.22;69.83;98090.09;5003274;28;20208;-95
2023/01/26 11:22:17;;;;;;;9.70;4.95;;;;;;;7.38;69.09;98093.25;5006236;28;20414;-94
2023/01/26 11:24:51;;;;;;;10.50;5.80;;;;;;;7.28;70.51;98089.06;5006259;28;20085;-93
2023/01/26 11:27:39;;;;;;;9.95;4.97;;;;;;;6.92;69.51;98087.28;4993996;28;20053;-94
2023/01/26 11:30:30;;;;;;;9.43;5.25;;;;;;;6.93;71.40;98104.00;4992105;28;20050;-93
2023/01/26 11:33:06;;;;;;;9.98;5.10;;;;;;;6.92;70.45;98076.72;4996883;28;20038;-95
2023/01/26 11:35:44;;;;;;;9.00;4.63;;;;;;;7.11;68.51;98114.16;5006462;28;20046;-94
2023/01/26 11:38:25;;;;;;;9.50;5.23;;;;;;;6.98;69.70;98102.13;4995222;28;20042;-94
2023/01/26 11:41:04;;;;;;;10.20;5.40;;;;;;;6.85;69.93;98117.38;4993028;28;20041;-94
2023/01/26 11:43:55;;;;;;;9.30;4.97;;;;;;;6.82;69.65;98082.25;4989734;28;20493;-91
2023/01/26 11:46:41;;;;;;;9.82;5.60;;;;;;;7.37;69.77;98079.16;5000424;28;20132;-92
2023/01/26 11:49:22;;;;;;;10.57;5.40;;;;;;;7.97;67.21;98084.63;4987513;28;20053;-94
2023/01/26 11:52:01;;;;;;;10.80;5.07;;;;;;;8.08;66.37;98093.13;4999045;28;20042;-95
2023/01/26 11:54:54;;;;;;;9.02;5.10;;;;;;;7.76;65.44;98062.25;4992278;28;20101;-95
2023/01/26 11:57:27;;;;;;;8.48;4.95;;;;;;;7.86;65.80;98074.31;4989427;28;20045;-94
2023/01/26 11:59:58;;;;;;;12.35;5.28;;;;;;;7.76;66.89;98063.13;4989678;28;20043;-93
2023/01/26 12:02:29;;;;;;;9.45;4.82;;;;;;;7.86;65.91;98052.28;4990848;28;20495;-92
2023/01/26 12:04:57;;;;;;;9.57;5.20;;;;;;;7.98;64.70;98052.81;4989122;28;20041;-93
2023/01/26 12:07:29;;;;;;;8.88;4.85;;;;;;;7.99;63.69;98049.25;4983198;28;20053;-93
2023/01/26 12:09:58;;;;;;;8.38;4.97;;;;;;;7.96;63.43;98049.34;4997347;28;20496;-93
2023/01/26 12:12:33;;;;;;;10.50;5.00;;;;;;;7.73;64.50;98034.09;4993238;28;20037;-94
2023/01/26 12:15:03;;;;;;;9.68;4.50;;;;;;;7.60;65.14;98049.44;4987484;28;20054;-94
2023/01/26 12:17:39;;;;;;;9.75;5.15;;;;;;;7.85;65.38;98047.91;4985295;28;20046;-94
2023/01/26 12:20:23;;;;;;;7.90;4.63;;;;;;;7.73;64.65;98028.81;4990263;28;20056;-95
2023/01/26 12:22:54;;;;;;;10.27;4.85;;;;;;;7.66;64.58;98026.38;4987912;28;20046;-94
2023/01/26 12:25:27;;;;;;;8.38;4.95;;;;;;;7.76;65.17;98025.19;4972441;28;20094;-95
2023/01/26 12:27:59;;;;;;;10.98;5.68;;;;;;;7.76;65.57;98027.84;4980118;28;20061;-95
2023/01/26 12:30:36;;;;;;;9.75;5.80;;;;;;;7.74;66.00;98019.06;4978760;28;20042;-95
2023/01/26 12:33:03;;;;;;;10.25;5.25;;;;;;;7.44;67.97;98012.84;4971794;28;20129;-95
2023/01/26 12:35:44;;;;;;;12.90;5.53;;;;;;;7.58;68.06;98022.16;4982354;28;20046;-93
2023/01/26 12:38:15;;;;;;;13.18;5.85;;;;;;;7.61;67.67;98018.53;4970852;28;20039;-96
2023/01/26 12:40:53;;;;;;;9.82;5.43;;;;;;;7.58;68.21;98027.44;4969130;28;20043;-93